createdAt,value
2023-02-25T00:03:59.585Z,98294.47
2023-02-25T00:09:01.241Z,98289.81
2023-02-25T00:14:02.997Z,98292.13
2023-02-25T00:19:04.579Z,98294.81
2023-02-25T00:24:16.006Z,98297.09
2023-02-25T00:29:18.510Z,98285.47
2023-02-25T00:34:20.567Z,98278.84
2023-02-25T00:39:24.032Z,98287.34
2023-02-25T00:44:25.652Z,98278.56
2023-02-25T00:49:32.398Z,98274.22
2023-02-25T00:54:34.617Z,98270.19
2023-02-25T00:59:37.986Z,98279.03
2023-02-25T01:04:39.526Z,98277.84
2023-02-25T01:09:42.613Z,98271.00
2023-02-25T01:14:44.822Z,98272.91
2023-02-25T01:19:46.422Z,98265.88
2023-02-25T01:24:49.390Z,98255.63
2023-02-25T01:29:50.993Z,98246.09
2023-02-25T01:34:52.676Z,98242.91
2023-02-25T01:39:54.326Z,98247.19
2023-02-25T01:45:17.929Z,98242.03
2023-02-25T01:50:20.363Z,98253.31
2023-02-25T01:55:24.270Z,98249.91
2023-02-25T02:00:28.302Z,98249.22
2023-02-25T02:05:56.013Z,98250.31
2023-02-25T02:10:58.022Z,98241.03
2023-02-25T02:16:14.662Z,98241.88
2023-02-25T02:21:34.416Z,98237.34
2023-02-25T02:26:46.546Z,98235.50
2023-02-25T02:31:54.152Z,98234.72
2023-02-25T02:37:04.648Z,98229.13
2023-02-25T02:42:15.782Z,98224.50
2023-02-25T02:47:23.198Z,98230.50
2023-02-25T02:52:28.894Z,98214.69
2023-02-25T02:57:31.642Z,98229.63
2023-02-25T03:02:37.742Z,98216.34
2023-02-25T03:07:51.325Z,98216.72
2023-02-25T03:12:53.062Z,98223.69
2023-02-25T03:17:59.472Z,98216.94
2023-02-25T03:23:03.028Z,98206.81
2023-02-25T03:28:16.669Z,98213.97
2023-02-25T03:33:40.562Z,98229.06
2023-02-25T03:38:45.461Z,98230.81
2023-02-25T03:43:53.013Z,98225.47
2023-02-25T03:48:55.882Z,98228.75
2023-02-25T03:54:00.619Z,98244.38
2023-02-25T03:59:06.101Z,98243.69
2023-02-25T04:04:07.735Z,98252.81
2023-02-25T04:09:09.343Z,98256.25
2023-02-25T04:14:10.938Z,98258.28
2023-02-25T04:19:12.635Z,98263.53
2023-02-25T04:24:15.912Z,98266.38
2023-02-25T04:29:17.471Z,98308.41
2023-02-25T04:34:19.423Z,98308.38
2023-02-25T04:39:20.990Z,98316.56
2023-02-25T04:44:22.596Z,98326.88
2023-02-25T04:49:24.444Z,98316.56
2023-02-25T04:54:25.998Z,98316.06
2023-02-25T04:59:27.623Z,98317.38
2023-02-25T05:04:29.352Z,98317.03
2023-02-25T05:09:31.282Z,98338.28
2023-02-25T05:14:33.221Z,98319.53
2023-02-25T05:19:34.791Z,98326.69
2023-02-25T05:24:36.591Z,98332.31
2023-02-25T05:29:38.167Z,98332.66
2023-02-25T05:34:41.480Z,98347.25
2023-02-25T05:39:43.095Z,98352.03
2023-02-25T05:44:44.666Z,98354.22
2023-02-25T05:49:46.310Z,98353.88
2023-02-25T05:54:48.350Z,98357.38
2023-02-25T05:59:50.590Z,98365.81
2023-02-25T06:04:53.790Z,98378.13
2023-02-25T06:10:00.751Z,98387.56
2023-02-25T06:15:02.367Z,98388.38
2023-02-25T06:20:05.465Z,98406.38
2023-02-25T06:25:07.842Z,98420.84
2023-02-25T06:30:10.173Z,98421.88
2023-02-25T06:35:11.742Z,98423.50
2023-02-25T06:40:15.155Z,98431.84
2023-02-25T06:45:17.002Z,98443.66
2023-02-25T06:50:19.531Z,98449.00
2023-02-25T06:55:21.442Z,98457.91
2023-02-25T07:00:23.244Z,98453.28
2023-02-25T07:05:24.835Z,98462.13
2023-02-25T07:10:26.397Z,98459.28
2023-02-25T07:15:28.052Z,98462.63
2023-02-25T07:20:30.146Z,98482.88
2023-02-25T07:25:31.851Z,98481.81
2023-02-25T07:30:33.528Z,98485.44
2023-02-25T07:35:35.098Z,98484.47
2023-02-25T07:40:36.910Z,98487.91
2023-02-25T07:45:38.517Z,98502.78
2023-02-25T07:50:40.108Z,98501.47
2023-02-25T07:55:45.135Z,98506.47
2023-02-25T08:00:47.279Z,98508.97
2023-02-25T08:05:54.080Z,98525.94
2023-02-25T08:10:55.637Z,98525.53
2023-02-25T08:15:57.278Z,98517.63
2023-02-25T08:21:00.007Z,98530.44
2023-02-25T08:26:02.521Z,98529.59
2023-02-25T08:31:06.338Z,98531.19
2023-02-25T08:36:11.602Z,98539.00
2023-02-25T08:41:13.650Z,98551.56
2023-02-25T08:46:15.209Z,98548.03
2023-02-25T08:51:19.105Z,98558.47
2023-02-25T08:56:20.782Z,98553.25
2023-02-25T09:01:23.562Z,98547.63
2023-02-25T09:06:30.067Z,98561.22
2023-02-25T09:11:32.506Z,98559.50
2023-02-25T09:16:34.191Z,98570.84
2023-02-25T09:21:36.829Z,98579.81
2023-02-25T09:26:38.373Z,98594.19
2023-02-25T09:31:40.209Z,98594.06
2023-02-25T09:36:42.567Z,98610.75
2023-02-25T09:41:54.539Z,98620.03
2023-02-25T09:47:27.187Z,98621.56
2023-02-25T09:52:54.289Z,98626.69
2023-02-25T09:58:06.150Z,98637.31
2023-02-25T10:03:16.806Z,98651.72
2023-02-25T10:08:34.702Z,98656.03
2023-02-25T10:13:55.251Z,98663.91
2023-02-25T10:19:21.885Z,98675.09
2023-02-25T10:24:29.622Z,98694.25
2023-02-25T10:29:55.834Z,98685.19
2023-02-25T10:35:00.625Z,98699.50
2023-02-25T10:40:05.015Z,98708.75
2023-02-25T10:45:13.729Z,98711.31
2023-02-25T10:50:20.134Z,98723.50
2023-02-25T10:55:54.696Z,98717.13
2023-02-25T11:01:10.231Z,98737.28
2023-02-25T11:06:23.579Z,98732.41
2023-02-25T11:11:37.152Z,98735.78
2023-02-25T11:16:40.717Z,98739.66
2023-02-25T11:21:42.715Z,98746.66
2023-02-25T11:26:47.280Z,98747.22
2023-02-25T11:31:59.339Z,98746.09
2023-02-25T11:37:24.164Z,98746.31
2023-02-25T11:42:27.493Z,98755.06
2023-02-25T11:47:31.991Z,98745.84
2023-02-25T11:52:59.828Z,98756.09
2023-02-25T11:58:22.966Z,98753.50
2023-02-25T12:03:49.364Z,98758.56
2023-02-25T12:09:14.254Z,98767.41
2023-02-25T12:14:34.495Z,98775.38
2023-02-25T12:20:01.571Z,98788.72
2023-02-25T12:25:22.091Z,98793.22
2023-02-25T12:30:45.236Z,98796.13
2023-02-25T12:36:05.830Z,98790.81
2023-02-25T12:41:32.197Z,98802.13
2023-02-25T12:47:12.542Z,98803.78
2023-02-25T12:52:25.214Z,98806.50
2023-02-25T12:57:56.079Z,98814.34
2023-02-25T13:03:29.250Z,98819.56
2023-02-25T13:08:45.255Z,98824.06
2023-02-25T13:14:12.055Z,98820.44
2023-02-25T13:19:25.628Z,98831.97
2023-02-25T13:24:45.856Z,98836.69
2023-02-25T13:30:05.432Z,98838.78
2023-02-25T13:35:32.221Z,98836.75
2023-02-25T13:40:39.967Z,98849.72
2023-02-25T13:46:25.636Z,98847.38
2023-02-25T13:51:57.271Z,98853.03
2023-02-25T13:57:36.416Z,98867.78
2023-02-25T14:02:59.665Z,98868.38
2023-02-25T14:08:16.612Z,98874.13
2023-02-25T14:13:26.665Z,98892.00
2023-02-25T14:18:37.155Z,98892.75
2023-02-25T14:24:05.726Z,98893.13
2023-02-25T14:29:18.349Z,98906.72
2023-02-25T14:34:19.862Z,98922.81
2023-02-25T14:39:58.938Z,98940.09
2023-02-25T14:45:12.557Z,98934.69
2023-02-25T14:50:23.101Z,98943.44
2023-02-25T14:56:21.455Z,98937.50
2023-02-25T15:01:50.980Z,98951.34
2023-02-25T15:07:12.863Z,98957.53
2023-02-25T15:12:21.048Z,98963.09
2023-02-25T15:17:43.672Z,98960.34
2023-02-25T15:23:04.943Z,98969.41
2023-02-25T15:28:31.123Z,98976.53
2023-02-25T15:33:45.677Z,98982.22
2023-02-25T15:38:48.788Z,98983.84
2023-02-25T15:43:50.476Z,99000.50
2023-02-25T15:49:21.647Z,99017.22
2023-02-25T15:54:32.075Z,99029.34
2023-02-25T15:59:49.388Z,99039.91
2023-02-25T16:04:51.242Z,99043.00
2023-02-25T16:09:58.843Z,99056.66
2023-02-25T16:15:01.277Z,99067.97
2023-02-25T16:20:16.983Z,99072.22
2023-02-25T16:25:30.625Z,99094.34
2023-02-25T16:30:43.249Z,99100.06
2023-02-25T16:36:08.606Z,99107.03
2023-02-25T16:41:12.022Z,99116.22
2023-02-25T16:46:20.416Z,99131.59
2023-02-25T16:51:24.803Z,99126.34
2023-02-25T16:56:29.004Z,99141.66
2023-02-25T17:01:33.347Z,99158.28
2023-02-25T17:06:35.257Z,99164.88
2023-02-25T17:11:37.449Z,99175.38
2023-02-25T17:16:43.488Z,99187.78
2023-02-25T17:21:54.226Z,99194.75
2023-02-25T17:26:55.902Z,99210.78
2023-02-25T17:31:58.383Z,99205.91
2023-02-25T17:37:04.029Z,99221.09
2023-02-25T17:42:33.236Z,99223.69
2023-02-25T17:47:37.073Z,99231.91
2023-02-25T17:52:39.702Z,99244.59
2023-02-25T17:57:42.070Z,99238.66
2023-02-25T18:02:46.720Z,99246.75
2023-02-25T18:07:57.441Z,99258.09
2023-02-25T18:13:00.872Z,99262.03
2023-02-25T18:18:04.686Z,99268.34
2023-02-25T18:23:15.295Z,99271.06
2023-02-25T18:28:22.026Z,99270.53
2023-02-25T18:33:23.613Z,99285.38
2023-02-25T18:38:26.992Z,99285.94
2023-02-25T18:43:30.713Z,99284.53
2023-02-25T18:48:32.603Z,99294.78
2023-02-25T18:53:34.290Z,99295.72
2023-02-25T18:58:35.916Z,99298.59
2023-02-25T19:03:43.717Z,99313.03
2023-02-25T19:08:45.444Z,99321.00
2023-02-25T19:13:47.021Z,99323.56
2023-02-25T19:18:48.776Z,99336.47
2023-02-25T19:23:51.799Z,99334.91
2023-02-25T19:28:53.471Z,99332.69
2023-02-25T19:33:55.202Z,99351.81
2023-02-25T19:38:56.785Z,99359.13
2023-02-25T19:43:58.389Z,99364.06
2023-02-25T19:49:00.157Z,99369.09
2023-02-25T19:54:01.725Z,99371.66
2023-02-25T19:59:03.349Z,99382.78
2023-02-25T20:04:06.165Z,99389.81
2023-02-25T20:09:09.593Z,99395.69
2023-02-25T20:14:13.995Z,99403.59
2023-02-25T20:19:15.810Z,99416.44
2023-02-25T20:24:17.420Z,99416.47
2023-02-25T20:29:19.410Z,99424.97
2023-02-25T20:34:22.584Z,99436.97
2023-02-25T20:39:39.246Z,99433.47
2023-02-25T20:44:41.362Z,99442.16
2023-02-25T20:49:43.047Z,99446.47
2023-02-25T20:54:44.707Z,99452.19
2023-02-25T20:59:48.116Z,99457.25
2023-02-25T21:04:50.485Z,99459.31
2023-02-25T21:09:52.109Z,99469.00
2023-02-25T21:14:53.721Z,99483.31
2023-02-25T21:19:55.358Z,99478.16
2023-02-25T21:24:57.976Z,99491.59
2023-02-25T21:29:59.687Z,99503.88
2023-02-25T21:35:01.295Z,99504.34
2023-02-25T21:40:04.077Z,99509.94
2023-02-25T21:45:06.148Z,99515.72
2023-02-25T21:50:08.433Z,99514.38
2023-02-25T21:55:10.133Z,99522.34
2023-02-25T22:00:12.352Z,99529.00
2023-02-25T22:05:14.198Z,99523.63
2023-02-25T22:10:15.971Z,99532.44
2023-02-25T22:15:17.665Z,99533.31
2023-02-25T22:20:19.345Z,99527.34
2023-02-25T22:25:20.919Z,99536.38
2023-02-25T22:30:22.467Z,99538.16
2023-02-25T22:35:24.115Z,99550.22
2023-02-25T22:40:26.187Z,99539.81
2023-02-25T22:45:27.747Z,99546.59
2023-02-25T22:50:29.321Z,99557.00
2023-02-25T22:55:33.013Z,99562.91
2023-02-25T23:00:41.769Z,99564.25
2023-02-25T23:05:43.333Z,99585.59
2023-02-25T23:10:44.903Z,99582.38
2023-02-25T23:15:47.837Z,99587.13
2023-02-25T23:20:53.448Z,99591.06
2023-02-25T23:25:55.009Z,99596.16
2023-02-25T23:30:56.602Z,99605.75
2023-02-25T23:35:59.568Z,99609.56
2023-02-25T23:41:01.171Z,99611.44
2023-02-25T23:46:06.517Z,99619.03
2023-02-25T23:51:08.969Z,99624.16
2023-02-25T23:56:12.160Z,99621.28
